»·PEaware :: N7215 KBUR-KLAS

N7215 :: KBUR-KLAS

FLIGHT INFORMATION

Flight Status: Arrived
Operator: Privately registered:
United States
More flights under this callsign
Pilot: Mads G. (14801)
Aircraft: BOEING 727-100
(B721)
More flights by this aircraft type
Origin: KBUR Bob Hope-Burbank
United States
Destination: KLAS McCarran Intl
United States
More flights between these airports :: More routes between these airports
Route: VNY3 DAG CLARR3
File this flight plan on PilotEdge
Remarks:
Altitude:
(Current/Filed)
25,000ft
Speed:
(Current/Filed)
300kts
Departed: 18-Nov-18 01:11 PM
Arrived: 18-Nov-18 02:04 PM
Distance/Time
Traveled:
194nm/0:53
Distance/Time
To Go:
Arrived

Flight Plot

Page will automatically refresh every two minutes.

Flight plan parsing failed; only flown route is shown


Map Options




Map Legend


Flown Route
Filed Route
Departure Airport
Arrival Airport
Navaid (VOR, NDB)
Fix

Horizontal Profiles

Position Reports

Time Latitude Longitude Heading Altitude Ground
Speed
18-Nov-18 12:25 34.196763 -118.350110 179 742ft 0kts
18-Nov-18 12:26 34.196763 -118.350110 179 742ft 0kts
18-Nov-18 12:27 34.196763 -118.350110 179 742ft 0kts
18-Nov-18 12:28 34.196763 -118.350110 179 742ft 0kts
18-Nov-18 12:29 34.196763 -118.350110 179 742ft 0kts
18-Nov-18 12:30 34.196763 -118.350110 179 742ft 0kts
18-Nov-18 12:31 34.196763 -118.350110 179 742ft 0kts
18-Nov-18 12:32 34.196763 -118.350110 179 742ft 0kts
18-Nov-18 12:33 34.196763 -118.350110 179 742ft 0kts
18-Nov-18 12:34 34.196763 -118.350110 179 742ft 0kts
18-Nov-18 12:35 34.196763 -118.350110 179 742ft 0kts
18-Nov-18 12:36 34.196763 -118.350110 179 742ft 0kts
18-Nov-18 12:37 34.196763 -118.350110 179 742ft 0kts
18-Nov-18 12:38 34.196763 -118.350110 179 742ft 0kts
18-Nov-18 12:39 34.196763 -118.350110 179 742ft 0kts
18-Nov-18 12:40 34.196763 -118.350110 179 742ft 0kts
18-Nov-18 12:41 34.196763 -118.350110 179 742ft 0kts
18-Nov-18 12:42 34.196763 -118.350110 179 742ft 0kts
18-Nov-18 12:43 34.196763 -118.350110 179 742ft 0kts
18-Nov-18 12:44 34.196763 -118.350110 179 742ft 0kts
18-Nov-18 12:45 34.196763 -118.350110 179 742ft 0kts
18-Nov-18 12:46 34.196763 -118.350110 179 742ft 0kts
18-Nov-18 12:47 34.196763 -118.350110 179 742ft 0kts
18-Nov-18 12:48 34.196763 -118.350110 179 742ft 0kts
18-Nov-18 12:49 34.196763 -118.350110 179 742ft 0kts
18-Nov-18 12:50 34.196763 -118.350110 179 742ft 0kts
18-Nov-18 12:51 34.196763 -118.350110 179 742ft 0kts
18-Nov-18 12:52 34.196763 -118.350110 179 742ft 0kts
18-Nov-18 12:53 34.196763 -118.350110 179 742ft 0kts
18-Nov-18 12:54 34.196763 -118.350110 179 742ft 0kts
18-Nov-18 12:55 34.196763 -118.350110 179 742ft 0kts
18-Nov-18 12:56 34.196983 -118.350094 203 742ft 1kts
18-Nov-18 12:57 34.197029 -118.349682 358 742ft 1kts
18-Nov-18 12:58 34.197079 -118.350033 213 742ft 2kts
18-Nov-18 12:59 34.197142 -118.349349 271 742ft 1kts
18-Nov-18 13:00 34.197141 -118.349307 270 742ft 0kts
18-Nov-18 13:01 34.197141 -118.349308 270 742ft 0kts
18-Nov-18 13:02 34.197141 -118.349308 270 742ft 0kts
18-Nov-18 13:03 34.197141 -118.349308 270 742ft 0kts
18-Nov-18 13:04 34.198805 -118.352964 272 742ft 27kts
18-Nov-18 13:05 34.200038 -118.355697 347 742ft 12kts
18-Nov-18 13:06 34.205892 -118.357336 346 742ft 23kts
18-Nov-18 13:07 34.210429 -118.358583 347 742ft 15kts
18-Nov-18 13:08 34.211663 -118.359072 315 742ft 0kts
18-Nov-18 13:09 34.211663 -118.359072 315 742ft 0kts
18-Nov-18 13:10 34.211663 -118.359072 315 742ft 0kts
18-Nov-18 13:11 34.211663 -118.359072 315 742ft 0kts
18-Nov-18 13:12 34.211663 -118.359072 315 742ft 0kts
18-Nov-18 13:13 34.211393 -118.360185 171 742ft 0kts
18-Nov-18 13:14 34.198586 -118.356658 166 776ft 145kts
18-Nov-18 13:15 34.160989 -118.376127 224 1797ft 171kts
18-Nov-18 13:16 34.127495 -118.408502 219 2699ft 145kts
18-Nov-18 13:17 34.105534 -118.446813 280 2676ft 149kts
18-Nov-18 13:18 34.145799 -118.464836 2 3605ft 196kts
18-Nov-18 13:19 34.212698 -118.460149 2 4107ft 316kts
18-Nov-18 13:20 34.294005 -118.456533 2 7968ft 293kts
18-Nov-18 13:21 34.370506 -118.427649 42 10950ft 306kts
18-Nov-18 13:22 34.425844 -118.346723 50 13525ft 321kts
18-Nov-18 13:23 34.487205 -118.258914 47 14048ft 359kts
18-Nov-18 13:24 34.553392 -118.168675 45 16417ft 328kts
18-Nov-18 13:25 34.615974 -118.084543 45 17359ft 340kts
18-Nov-18 13:26 34.653387 -117.982799 103 18307ft 359kts
18-Nov-18 13:27 34.652820 -117.862368 78 19468ft 379kts
18-Nov-18 13:28 34.672204 -117.729964 73 20536ft 404kts
18-Nov-18 13:29 34.701880 -117.596478 69 21995ft 412kts
18-Nov-18 13:30 34.737400 -117.461676 69 23312ft 422kts
18-Nov-18 13:31 34.773023 -117.323751 70 24459ft 432kts
18-Nov-18 13:32 34.809437 -117.179791 70 24789ft 458kts
18-Nov-18 13:33 34.847936 -117.029462 70 25154ft 478kts
18-Nov-18 13:34 34.886964 -116.876186 70 25739ft 471kts
18-Nov-18 13:35 34.925721 -116.723217 70 25269ft 472kts
18-Nov-18 13:36 34.964110 -116.570726 69 25638ft 451kts
18-Nov-18 13:37 35.033465 -116.455975 26 24433ft 429kts
18-Nov-18 13:38 35.127049 -116.366107 39 24012ft 436kts
18-Nov-18 13:39 35.211252 -116.262487 43 22082ft 436kts
18-Nov-18 13:40 35.294261 -116.156142 43 20180ft 414kts
18-Nov-18 13:41 35.372017 -116.056628 43 18209ft 399kts
18-Nov-18 13:42 35.447559 -115.959676 43 16193ft 387kts
18-Nov-18 13:43 35.520508 -115.865649 43 14247ft 375kts
18-Nov-18 13:44 35.588040 -115.778400 43 13797ft 324kts
18-Nov-18 13:45 35.646561 -115.702665 43 13142ft 293kts
18-Nov-18 13:46 35.699195 -115.634553 43 13156ft 271kts
18-Nov-18 13:47 35.757620 -115.571123 8 13187ft 286kts
18-Nov-18 13:48 35.839843 -115.572256 356 13258ft 308kts
18-Nov-18 13:49 35.927505 -115.576212 356 13270ft 314kts
18-Nov-18 13:50 36.011606 -115.579023 5 13219ft 290kts
18-Nov-18 13:51 36.046582 -115.504236 97 13244ft 281kts
18-Nov-18 13:52 36.033288 -115.408829 96 13119ft 276kts
18-Nov-18 13:53 36.026724 -115.314140 92 11607ft 309kts
18-Nov-18 13:54 36.019505 -115.210010 92 10840ft 300kts
18-Nov-18 13:55 36.012592 -115.108488 92 9857ft 294kts
18-Nov-18 13:56 36.005758 -115.008584 92 8825ft 289kts
18-Nov-18 13:57 35.999570 -114.919807 92 8551ft 233kts
18-Nov-18 13:58 35.994084 -114.840642 92 7491ft 230kts
18-Nov-18 13:59 35.999736 -114.767828 25 6611ft 200kts
18-Nov-18 14:00 36.029917 -114.802601 287 6595ft 174kts
18-Nov-18 14:01 36.044073 -114.857788 291 6625ft 177kts
18-Nov-18 14:02 36.059747 -114.918413 284 5445ft 193kts
18-Nov-18 14:03 36.071824 -114.968608 289 3855ft 181kts
18-Nov-18 14:04 36.072991 -115.035762 271 3161ft 164kts
18-Nov-18 14:05 36.073650 -115.090053 272 2699ft 148kts
18-Nov-18 14:06 36.073657 -115.130445 270 2061ft 128kts
18-Nov-18 14:07 36.074442 -115.149967 299 2122ft 0kts
18-Nov-18 14:08 36.074499 -115.150089 299 2123ft 7kts
18-Nov-18 14:09 36.078388 -115.152131 21 2123ft 23kts
18-Nov-18 14:10 36.081239 -115.153525 300 2122ft 16kts
18-Nov-18 14:11 36.083351 -115.153535 143 2116ft 7kts
18-Nov-18 14:12 36.083177 -115.153387 140 2116ft 0kts
18-Nov-18 14:13 36.083178 -115.153387 140 2116ft 0kts
18-Nov-18 14:14 36.083178 -115.153387 140 2116ft 0kts
18-Nov-18 14:15 36.083178 -115.153387 140 2116ft 0kts
18-Nov-18 14:16 36.083178 -115.153387 140 2116ft 0kts
18-Nov-18 14:17 36.083178 -115.153387 140 2116ft 0kts
18-Nov-18 14:18 36.083178 -115.153387 140 2116ft 0kts
18-Nov-18 14:19 36.083178 -115.153387 140 2116ft 0kts
18-Nov-18 14:20 36.083178 -115.153387 140 2116ft 0kts
18-Nov-18 14:21 36.083178 -115.153387 140 2116ft 0kts

Navigation Log

Ident Type
Flight plan parsing failed, navigation log unavailable